sensor_id;sensor_type;location;lat;lon;timestamp;temperature;humidity
2913;DHT22;1466;48.778;9.166;2023-03-14T00:00:47;12.30;99.90
2913;DHT22;1466;48.778;9.166;2023-03-14T00:03:13;12.30;99.90
2913;DHT22;1466;48.778;9.166;2023-03-14T00:05:38;12.30;99.90
2913;DHT22;1466;48.778;9.166;2023-03-14T00:08:04;12.30;99.90
2913;DHT22;1466;48.778;9.166;2023-03-14T00:10:29;12.30;99.90
2913;DHT22;1466;48.778;9.166;2023-03-14T00:12:55;12.40;99.90
2913;DHT22;1466;48.778;9.166;2023-03-14T00:15:21;12.40;99.90
2913;DHT22;1466;48.778;9.166;2023-03-14T00:17:46;12.40;99.90
2913;DHT22;1466;48.778;9.166;2023-03-14T00:20:12;12.50;99.90
2913;DHT22;1466;48.778;9.166;2023-03-14T00:22:38;12.40;99.90
2913;DHT22;1466;48.778;9.166;2023-03-14T00:25:05;12.30;99.90
2913;DHT22;1466;48.778;9.166;2023-03-14T00:27:31;12.40;99.90
2913;DHT22;1466;48.778;9.166;2023-03-14T00:29:57;12.40;99.90
2913;DHT22;1466;48.778;9.166;2023-03-14T00:32:22;12.40;99.90
2913;DHT22;1466;48.778;9.166;2023-03-14T00:34:48;12.40;99.90
2913;DHT22;1466;48.778;9.166;2023-03-14T00:37:14;12.40;99.90
2913;DHT22;1466;48.778;9.166;2023-03-14T00:39:40;12.40;99.90
2913;DHT22;1466;48.778;9.166;2023-03-14T00:42:05;12.40;99.90
2913;DHT22;1466;48.778;9.166;2023-03-14T00:44:31;12.30;99.90
2913;DHT22;1466;48.778;9.166;2023-03-14T00:46:57;12.40;99.90
2913;DHT22;1466;48.778;9.166;2023-03-14T00:49:23;12.40;99.90
2913;DHT22;1466;48.778;9.166;2023-03-14T00:51:48;12.40;99.90
2913;DHT22;1466;48.778;9.166;2023-03-14T00:54:14;12.40;99.90
2913;DHT22;1466;48.778;9.166;2023-03-14T00:56:40;12.40;99.90
2913;DHT22;1466;48.778;9.166;2023-03-14T00:59:05;12.40;99.90
2913;DHT22;1466;48.778;9.166;2023-03-14T01:01:31;12.40;99.90
2913;DHT22;1466;48.778;9.166;2023-03-14T01:03:56;12.40;99.90
2913;DHT22;1466;48.778;9.166;2023-03-14T01:06:25;12.40;99.90
2913;DHT22;1466;48.778;9.166;2023-03-14T01:08:51;12.40;99.90
2913;DHT22;1466;48.778;9.166;2023-03-14T01:11:19;12.40;99.90
2913;DHT22;1466;48.778;9.166;2023-03-14T01:13:45;12.50;99.90
2913;DHT22;1466;48.778;9.166;2023-03-14T01:16:12;12.50;99.90
2913;DHT22;1466;48.778;9.166;2023-03-14T01:18:39;12.40;99.90
2913;DHT22;1466;48.778;9.166;2023-03-14T01:21:18;12.40;99.90
2913;DHT22;1466;48.778;9.166;2023-03-14T01:23:44;12.40;99.90
2913;DHT22;1466;48.778;9.166;2023-03-14T01:26:12;12.40;99.90
2913;DHT22;1466;48.778;9.166;2023-03-14T01:28:38;12.40;99.90
2913;DHT22;1466;48.778;9.166;2023-03-14T01:31:05;12.50;99.90
2913;DHT22;1466;48.778;9.166;2023-03-14T01:33:31;12.50;99.90
2913;DHT22;1466;48.778;9.166;2023-03-14T01:35:57;12.50;99.90
2913;DHT22;1466;48.778;9.166;2023-03-14T01:38:23;12.60;99.90
2913;DHT22;1466;48.778;9.166;2023-03-14T01:40:48;12.60;99.90
2913;DHT22;1466;48.778;9.166;2023-03-14T01:43:19;12.60;99.90
2913;DHT22;1466;48.778;9.166;2023-03-14T01:46:17;12.60;99.90
2913;DHT22;1466;48.778;9.166;2023-03-14T01:52:03;12.50;99.90
2913;DHT22;1466;48.778;9.166;2023-03-14T01:54:55;12.50;99.90
2913;DHT22;1466;48.778;9.166;2023-03-14T01:57:35;12.50;99.90
2913;DHT22;1466;48.778;9.166;2023-03-14T02:00:08;12.50;99.90
2913;DHT22;1466;48.778;9.166;2023-03-14T02:02:38;12.50;99.90
2913;DHT22;1466;48.778;9.166;2023-03-14T02:05:05;12.50;99.90
2913;DHT22;1466;48.778;9.166;2023-03-14T02:07:45;12.50;99.90
2913;DHT22;1466;48.778;9.166;2023-03-14T02:10:12;12.50;99.90
2913;DHT22;1466;48.778;9.166;2023-03-14T02:12:39;12.50;99.90
2913;DHT22;1466;48.778;9.166;2023-03-14T02:15:05;12.40;99.90
2913;DHT22;1466;48.778;9.166;2023-03-14T02:17:31;12.50;99.90
2913;DHT22;1466;48.778;9.166;2023-03-14T02:22:22;12.40;99.90
2913;DHT22;1466;48.778;9.166;2023-03-14T02:25:00;12.50;99.90
2913;DHT22;1466;48.778;9.166;2023-03-14T02:27:28;12.40;99.90
2913;DHT22;1466;48.778;9.166;2023-03-14T02:30:15;12.40;99.90
2913;DHT22;1466;48.778;9.166;2023-03-14T02:32:45;12.40;99.90
2913;DHT22;1466;48.778;9.166;2023-03-14T02:35:15;12.40;99.90
2913;DHT22;1466;48.778;9.166;2023-03-14T02:37:46;12.30;99.90
2913;DHT22;1466;48.778;9.166;2023-03-14T02:40:13;12.30;99.90
2913;DHT22;1466;48.778;9.166;2023-03-14T02:42:38;12.30;99.90
2913;DHT22;1466;48.778;9.166;2023-03-14T02:47:39;12.20;99.90
2913;DHT22;1466;48.778;9.166;2023-03-14T02:50:12;12.20;99.90
2913;DHT22;1466;48.778;9.166;2023-03-14T02:52:39;12.20;99.90
2913;DHT22;1466;48.778;9.166;2023-03-14T02:55:05;12.20;99.90
2913;DHT22;1466;48.778;9.166;2023-03-14T02:57:31;12.20;99.90
2913;DHT22;1466;48.778;9.166;2023-03-14T03:00:00;12.20;99.90
2913;DHT22;1466;48.778;9.166;2023-03-14T03:02:27;12.10;99.90
2913;DHT22;1466;48.778;9.166;2023-03-14T03:04:53;12.10;99.90
2913;DHT22;1466;48.778;9.166;2023-03-14T03:07:18;12.10;99.90
2913;DHT22;1466;48.778;9.166;2023-03-14T03:09:44;12.10;99.90
2913;DHT22;1466;48.778;9.166;2023-03-14T03:12:10;12.10;99.90
2913;DHT22;1466;48.778;9.166;2023-03-14T03:14:36;12.10;99.90
2913;DHT22;1466;48.778;9.166;2023-03-14T03:17:03;12.10;99.90
2913;DHT22;1466;48.778;9.166;2023-03-14T03:19:29;12.10;99.90
2913;DHT22;1466;48.778;9.166;2023-03-14T03:21:55;12.10;99.90
2913;DHT22;1466;48.778;9.166;2023-03-14T03:24:20;12.10;99.90
2913;DHT22;1466;48.778;9.166;2023-03-14T03:26:46;12.10;99.90
2913;DHT22;1466;48.778;9.166;2023-03-14T03:29:11;12.00;99.90
2913;DHT22;1466;48.778;9.166;2023-03-14T03:31:38;12.00;99.90
2913;DHT22;1466;48.778;9.166;2023-03-14T03:34:03;12.10;99.90
2913;DHT22;1466;48.778;9.166;2023-03-14T03:36:29;12.00;99.90
2913;DHT22;1466;48.778;9.166;2023-03-14T03:38:55;12.00;99.90
2913;DHT22;1466;48.778;9.166;2023-03-14T03:41:20;12.00;99.90
2913;DHT22;1466;48.778;9.166;2023-03-14T03:43:46;11.90;99.90
2913;DHT22;1466;48.778;9.166;2023-03-14T03:46:11;12.00;99.90
2913;DHT22;1466;48.778;9.166;2023-03-14T03:48:37;11.90;99.90
2913;DHT22;1466;48.778;9.166;2023-03-14T03:51:03;12.00;99.90
2913;DHT22;1466;48.778;9.166;2023-03-14T03:53:28;11.90;99.90
2913;DHT22;1466;48.778;9.166;2023-03-14T03:55:54;12.00;99.90
2913;DHT22;1466;48.778;9.166;2023-03-14T03:58:19;12.00;99.90
2913;DHT22;1466;48.778;9.166;2023-03-14T04:00:45;11.90;99.90
2913;DHT22;1466;48.778;9.166;2023-03-14T04:03:10;11.90;99.90
2913;DHT22;1466;48.778;9.166;2023-03-14T04:05:36;11.90;99.90
2913;DHT22;1466;48.778;9.166;2023-03-14T04:08:02;11.90;99.90
2913;DHT22;1466;48.778;9.166;2023-03-14T04:10:29;11.90;99.90
2913;DHT22;1466;48.778;9.166;2023-03-14T04:12:55;11.90;99.90
2913;DHT22;1466;48.778;9.166;2023-03-14T04:15:20;11.90;99.90
2913;DHT22;1466;48.778;9.166;2023-03-14T04:17:46;11.90;99.90
2913;DHT22;1466;48.778;9.166;2023-03-14T04:20:12;11.90;99.90
2913;DHT22;1466;48.778;9.166;2023-03-14T04:22:38;11.90;99.90
2913;DHT22;1466;48.778;9.166;2023-03-14T04:25:05;11.80;99.90
2913;DHT22;1466;48.778;9.166;2023-03-14T04:27:30;11.80;99.90
2913;DHT22;1466;48.778;9.166;2023-03-14T04:29:56;11.80;99.90
2913;DHT22;1466;48.778;9.166;2023-03-14T04:32:22;11.90;99.90
2913;DHT22;1466;48.778;9.166;2023-03-14T04:34:47;11.90;99.90
2913;DHT22;1466;48.778;9.166;2023-03-14T04:37:13;11.80;99.90
2913;DHT22;1466;48.778;9.166;2023-03-14T04:39:39;11.90;99.90
2913;DHT22;1466;48.778;9.166;2023-03-14T04:42:04;11.90;99.90
2913;DHT22;1466;48.778;9.166;2023-03-14T04:44:30;11.80;99.90
2913;DHT22;1466;48.778;9.166;2023-03-14T04:46:55;11.80;99.90
2913;DHT22;1466;48.778;9.166;2023-03-14T04:49:21;11.90;99.90
2913;DHT22;1466;48.778;9.166;2023-03-14T04:51:47;11.80;99.90
2913;DHT22;1466;48.778;9.166;2023-03-14T04:54:13;11.90;99.90
2913;DHT22;1466;48.778;9.166;2023-03-14T04:56:38;11.80;99.90
2913;DHT22;1466;48.778;9.166;2023-03-14T04:59:04;11.80;99.90
2913;DHT22;1466;48.778;9.166;2023-03-14T05:01:30;11.80;99.90
2913;DHT22;1466;48.778;9.166;2023-03-14T05:03:56;11.80;99.90
2913;DHT22;1466;48.778;9.166;2023-03-14T05:06:21;11.80;99.90
2913;DHT22;1466;48.778;9.166;2023-03-14T05:08:47;11.80;99.90
2913;DHT22;1466;48.778;9.166;2023-03-14T05:11:12;11.80;99.90
2913;DHT22;1466;48.778;9.166;2023-03-14T05:13:38;11.80;99.90
2913;DHT22;1466;48.778;9.166;2023-03-14T05:16:08;11.80;99.90
2913;DHT22;1466;48.778;9.166;2023-03-14T05:18:34;11.80;99.90
2913;DHT22;1466;48.778;9.166;2023-03-14T05:21:00;11.80;99.90
2913;DHT22;1466;48.778;9.166;2023-03-14T05:23:26;11.80;99.90
2913;DHT22;1466;48.778;9.166;2023-03-14T05:25:53;11.80;99.90
2913;DHT22;1466;48.778;9.166;2023-03-14T05:28:18;11.70;99.90
2913;DHT22;1466;48.778;9.166;2023-03-14T05:30:44;11.80;99.90
2913;DHT22;1466;48.778;9.166;2023-03-14T05:33:10;11.80;99.90
2913;DHT22;1466;48.778;9.166;2023-03-14T05:35:35;11.90;99.90
2913;DHT22;1466;48.778;9.166;2023-03-14T05:38:01;11.90;99.90
2913;DHT22;1466;48.778;9.166;2023-03-14T05:40:26;11.90;99.90
2913;DHT22;1466;48.778;9.166;2023-03-14T05:42:52;11.90;99.90
2913;DHT22;1466;48.778;9.166;2023-03-14T05:45:18;12.00;99.90
2913;DHT22;1466;48.778;9.166;2023-03-14T05:47:43;11.90;99.90
2913;DHT22;1466;48.778;9.166;2023-03-14T05:50:09;11.90;99.90
2913;DHT22;1466;48.778;9.166;2023-03-14T05:52:35;11.90;99.90
2913;DHT22;1466;48.778;9.166;2023-03-14T05:55:01;11.90;99.90
2913;DHT22;1466;48.778;9.166;2023-03-14T05:57:27;11.90;99.90
2913;DHT22;1466;48.778;9.166;2023-03-14T05:59:52;11.90;99.90
2913;DHT22;1466;48.778;9.166;2023-03-14T06:02:18;11.90;99.90
2913;DHT22;1466;48.778;9.166;2023-03-14T06:04:43;12.00;99.90
2913;DHT22;1466;48.778;9.166;2023-03-14T06:07:09;12.00;99.90
2913;DHT22;1466;48.778;9.166;2023-03-14T06:09:34;12.00;99.90
2913;DHT22;1466;48.778;9.166;2023-03-14T06:12:00;12.00;99.90
2913;DHT22;1466;48.778;9.166;2023-03-14T06:14:25;12.00;99.90
2913;DHT22;1466;48.778;9.166;2023-03-14T06:16:51;12.00;99.90
2913;DHT22;1466;48.778;9.166;2023-03-14T06:19:17;12.00;99.90
2913;DHT22;1466;48.778;9.166;2023-03-14T06:21:43;12.00;99.90
2913;DHT22;1466;48.778;9.166;2023-03-14T06:24:09;12.10;99.90
2913;DHT22;1466;48.778;9.166;2023-03-14T06:26:34;12.10;99.90
2913;DHT22;1466;48.778;9.166;2023-03-14T06:29:00;12.00;99.90
2913;DHT22;1466;48.778;9.166;2023-03-14T06:31:29;12.00;99.90
2913;DHT22;1466;48.778;9.166;2023-03-14T06:33:55;12.10;99.90
2913;DHT22;1466;48.778;9.166;2023-03-14T06:36:21;12.10;99.90
2913;DHT22;1466;48.778;9.166;2023-03-14T06:38:46;12.20;99.90
2913;DHT22;1466;48.778;9.166;2023-03-14T06:41:12;12.20;99.90
2913;DHT22;1466;48.778;9.166;2023-03-14T06:43:38;12.30;99.90
2913;DHT22;1466;48.778;9.166;2023-03-14T06:46:03;12.30;99.90
2913;DHT22;1466;48.778;9.166;2023-03-14T06:48:29;12.30;99.90
2913;DHT22;1466;48.778;9.166;2023-03-14T06:50:54;12.30;99.90
2913;DHT22;1466;48.778;9.166;2023-03-14T06:53:20;12.20;99.90
2913;DHT22;1466;48.778;9.166;2023-03-14T06:55:46;12.30;99.90
2913;DHT22;1466;48.778;9.166;2023-03-14T06:58:11;12.30;99.90
2913;DHT22;1466;48.778;9.166;2023-03-14T07:00:37;12.30;99.90
2913;DHT22;1466;48.778;9.166;2023-03-14T07:03:03;12.40;99.90
2913;DHT22;1466;48.778;9.166;2023-03-14T07:05:28;12.40;99.90
2913;DHT22;1466;48.778;9.166;2023-03-14T07:07:54;12.50;99.90
2913;DHT22;1466;48.778;9.166;2023-03-14T07:10:20;12.60;99.90
2913;DHT22;1466;48.778;9.166;2023-03-14T07:12:45;12.60;99.90
2913;DHT22;1466;48.778;9.166;2023-03-14T07:15:11;12.60;99.90
2913;DHT22;1466;48.778;9.166;2023-03-14T07:17:37;12.70;99.90
2913;DHT22;1466;48.778;9.166;2023-03-14T07:20:03;12.70;99.90
2913;DHT22;1466;48.778;9.166;2023-03-14T07:22:32;12.80;99.90
2913;DHT22;1466;48.778;9.166;2023-03-14T07:24:58;12.80;99.90
2913;DHT22;1466;48.778;9.166;2023-03-14T07:27:23;12.70;99.90
2913;DHT22;1466;48.778;9.166;2023-03-14T07:29:49;12.80;99.90
2913;DHT22;1466;48.778;9.166;2023-03-14T07:32:15;12.90;99.90
2913;DHT22;1466;48.778;9.166;2023-03-14T07:34:41;13.00;99.90
2913;DHT22;1466;48.778;9.166;2023-03-14T07:37:07;13.10;99.90
2913;DHT22;1466;48.778;9.166;2023-03-14T07:39:33;13.10;99.90
2913;DHT22;1466;48.778;9.166;2023-03-14T07:41:59;13.20;99.90
2913;DHT22;1466;48.778;9.166;2023-03-14T07:44:25;13.30;99.90
2913;DHT22;1466;48.778;9.166;2023-03-14T07:46:51;13.30;99.90
2913;DHT22;1466;48.778;9.166;2023-03-14T07:49:16;13.40;99.90
2913;DHT22;1466;48.778;9.166;2023-03-14T07:51:42;13.50;99.90
2913;DHT22;1466;48.778;9.166;2023-03-14T07:54:09;13.50;99.90
2913;DHT22;1466;48.778;9.166;2023-03-14T07:56:35;13.50;99.90
2913;DHT22;1466;48.778;9.166;2023-03-14T07:59:00;13.50;99.90
2913;DHT22;1466;48.778;9.166;2023-03-14T08:01:26;13.50;99.90
2913;DHT22;1466;48.778;9.166;2023-03-14T08:03:52;13.50;99.90
2913;DHT22;1466;48.778;9.166;2023-03-14T08:06:17;13.60;99.90
2913;DHT22;1466;48.778;9.166;2023-03-14T08:08:43;13.70;99.90
2913;DHT22;1466;48.778;9.166;2023-03-14T08:11:09;13.70;99.90
2913;DHT22;1466;48.778;9.166;2023-03-14T08:13:36;13.80;99.90
2913;DHT22;1466;48.778;9.166;2023-03-14T08:16:02;13.80;99.90
2913;DHT22;1466;48.778;9.166;2023-03-14T08:18:27;13.90;99.90
2913;DHT22;1466;48.778;9.166;2023-03-14T08:20:53;13.90;99.90
2913;DHT22;1466;48.778;9.166;2023-03-14T08:23:18;14.00;99.90
2913;DHT22;1466;48.778;9.166;2023-03-14T08:25:44;14.00;99.60
2913;DHT22;1466;48.778;9.166;2023-03-14T08:28:10;14.00;99.40
2913;DHT22;1466;48.778;9.166;2023-03-14T08:30:35;14.10;99.50
2913;DHT22;1466;48.778;9.166;2023-03-14T08:33:01;14.10;99.60
2913;DHT22;1466;48.778;9.166;2023-03-14T08:35:27;14.30;99.40
2913;DHT22;1466;48.778;9.166;2023-03-14T08:37:53;14.40;99.30
2913;DHT22;1466;48.778;9.166;2023-03-14T08:40:18;14.50;99.20
2913;DHT22;1466;48.778;9.166;2023-03-14T08:42:44;14.60;98.10
2913;DHT22;1466;48.778;9.166;2023-03-14T08:45:14;14.50;97.90
2913;DHT22;1466;48.778;9.166;2023-03-14T08:47:42;14.60;98.10
2913;DHT22;1466;48.778;9.166;2023-03-14T08:50:08;14.60;98.00
2913;DHT22;1466;48.778;9.166;2023-03-14T08:52:34;14.60;97.30
2913;DHT22;1466;48.778;9.166;2023-03-14T08:55:00;14.60;97.40
2913;DHT22;1466;48.778;9.166;2023-03-14T08:57:26;14.60;96.90
2913;DHT22;1466;48.778;9.166;2023-03-14T08:59:55;14.50;97.10
2913;DHT22;1466;48.778;9.166;2023-03-14T09:02:21;14.70;97.30
2913;DHT22;1466;48.778;9.166;2023-03-14T09:04:47;14.80;97.10
2913;DHT22;1466;48.778;9.166;2023-03-14T09:07:13;14.90;97.20
2913;DHT22;1466;48.778;9.166;2023-03-14T09:09:38;14.90;97.20
2913;DHT22;1466;48.778;9.166;2023-03-14T09:12:04;14.90;97.10
2913;DHT22;1466;48.778;9.166;2023-03-14T09:14:30;14.90;97.20
2913;DHT22;1466;48.778;9.166;2023-03-14T09:16:57;14.80;97.50
2913;DHT22;1466;48.778;9.166;2023-03-14T09:19:23;15.10;97.60
2913;DHT22;1466;48.778;9.166;2023-03-14T09:21:48;15.40;97.50
2913;DHT22;1466;48.778;9.166;2023-03-14T09:24:15;15.70;97.30
2913;DHT22;1466;48.778;9.166;2023-03-14T09:26:40;16.00;97.30
2913;DHT22;1466;48.778;9.166;2023-03-14T09:29:06;16.40;97.20
2913;DHT22;1466;48.778;9.166;2023-03-14T09:31:32;16.40;96.30
2913;DHT22;1466;48.778;9.166;2023-03-14T09:33:57;16.20;96.30
2913;DHT22;1466;48.778;9.166;2023-03-14T09:36:23;16.10;96.40
2913;DHT22;1466;48.778;9.166;2023-03-14T09:38:48;15.90;96.50
2913;DHT22;1466;48.778;9.166;2023-03-14T09:41:33;15.80;96.80
2913;DHT22;1466;48.778;9.166;2023-03-14T09:46:36;15.30;97.30
2913;DHT22;1466;48.778;9.166;2023-03-14T09:49:05;15.10;97.30
2913;DHT22;1466;48.778;9.166;2023-03-14T09:51:34;15.00;97.40
2913;DHT22;1466;48.778;9.166;2023-03-14T09:54:01;14.90;97.60
2913;DHT22;1466;48.778;9.166;2023-03-14T09:56:29;14.90;97.80
2913;DHT22;1466;48.778;9.166;2023-03-14T09:58:58;14.90;97.80
2913;DHT22;1466;48.778;9.166;2023-03-14T10:01:30;15.00;97.60
2913;DHT22;1466;48.778;9.166;2023-03-14T10:04:02;15.10;97.40
2913;DHT22;1466;48.778;9.166;2023-03-14T10:06:30;15.00;97.10
2913;DHT22;1466;48.778;9.166;2023-03-14T10:08:57;15.00;97.20
2913;DHT22;1466;48.778;9.166;2023-03-14T10:11:23;15.00;97.30
2913;DHT22;1466;48.778;9.166;2023-03-14T10:14:10;15.00;97.30
2913;DHT22;1466;48.778;9.166;2023-03-14T10:16:42;14.90;97.20
2913;DHT22;1466;48.778;9.166;2023-03-14T10:19:13;15.00;97.30
2913;DHT22;1466;48.778;9.166;2023-03-14T10:21:53;15.00;97.20
2913;DHT22;1466;48.778;9.166;2023-03-14T10:26:55;15.40;97.30
2913;DHT22;1466;48.778;9.166;2023-03-14T10:29:23;15.40;96.90
2913;DHT22;1466;48.778;9.166;2023-03-14T10:34:23;15.50;96.30
2913;DHT22;1466;48.778;9.166;2023-03-14T10:36:54;15.50;96.20
2913;DHT22;1466;48.778;9.166;2023-03-14T10:42:02;15.40;95.70
2913;DHT22;1466;48.778;9.166;2023-03-14T10:44:30;15.50;96.00
2913;DHT22;1466;48.778;9.166;2023-03-14T10:47:01;15.40;95.90
2913;DHT22;1466;48.778;9.166;2023-03-14T10:49:37;15.50;96.00
2913;DHT22;1466;48.778;9.166;2023-03-14T10:54:37;15.50;95.50
2913;DHT22;1466;48.778;9.166;2023-03-14T10:57:04;15.40;95.60
2913;DHT22;1466;48.778;9.166;2023-03-14T10:59:39;15.40;95.90
2913;DHT22;1466;48.778;9.166;2023-03-14T11:07:42;15.40;96.40
2913;DHT22;1466;48.778;9.166;2023-03-14T11:10:35;15.40;97.10
2913;DHT22;1466;48.778;9.166;2023-03-14T11:13:15;15.30;97.70
2913;DHT22;1466;48.778;9.166;2023-03-14T11:15:45;15.10;97.90
2913;DHT22;1466;48.778;9.166;2023-03-14T11:21:09;14.90;98.50
2913;DHT22;1466;48.778;9.166;2023-03-14T11:28:44;14.40;99.90
2913;DHT22;1466;48.778;9.166;2023-03-14T11:31:33;14.20;99.90
2913;DHT22;1466;48.778;9.166;2023-03-14T11:37:04;13.90;99.90
2913;DHT22;1466;48.778;9.166;2023-03-14T11:39:41;13.90;99.90
2913;DHT22;1466;48.778;9.166;2023-03-14T11:42:13;13.80;99.90
2913;DHT22;1466;48.778;9.166;2023-03-14T11:44:41;13.90;99.90
2913;DHT22;1466;48.778;9.166;2023-03-14T11:47:21;13.90;99.90
2913;DHT22;1466;48.778;9.166;2023-03-14T11:55:34;13.90;99.90
2913;DHT22;1466;48.778;9.166;2023-03-14T11:58:12;13.90;99.90
2913;DHT22;1466;48.778;9.166;2023-03-14T12:00:40;13.90;99.90
2913;DHT22;1466;48.778;9.166;2023-03-14T12:13:33;14.30;99.90
2913;DHT22;1466;48.778;9.166;2023-03-14T12:16:05;14.30;99.90
2913;DHT22;1466;48.778;9.166;2023-03-14T12:18:36;14.30;99.90
2913;DHT22;1466;48.778;9.166;2023-03-14T12:21:08;14.20;99.90
2913;DHT22;1466;48.778;9.166;2023-03-14T12:23:49;14.20;99.90
2913;DHT22;1466;48.778;9.166;2023-03-14T12:26:27;14.10;99.90
2913;DHT22;1466;48.778;9.166;2023-03-14T12:34:25;14.00;98.90
2913;DHT22;1466;48.778;9.166;2023-03-14T12:39:43;13.90;98.50
2913;DHT22;1466;48.778;9.166;2023-03-14T12:42:17;13.80;97.10
2913;DHT22;1466;48.778;9.166;2023-03-14T12:44:47;13.60;96.40
2913;DHT22;1466;48.778;9.166;2023-03-14T12:49:46;13.40;95.70
2913;DHT22;1466;48.778;9.166;2023-03-14T12:52:16;13.30;94.50
2913;DHT22;1466;48.778;9.166;2023-03-14T12:55:13;13.20;93.40
2913;DHT22;1466;48.778;9.166;2023-03-14T13:00:33;12.90;92.30
2913;DHT22;1466;48.778;9.166;2023-03-14T13:03:12;12.70;92.00
2913;DHT22;1466;48.778;9.166;2023-03-14T13:05:55;12.60;92.10
2913;DHT22;1466;48.778;9.166;2023-03-14T13:08:40;12.60;91.90
2913;DHT22;1466;48.778;9.166;2023-03-14T13:11:16;12.60;91.70
2913;DHT22;1466;48.778;9.166;2023-03-14T13:13:55;12.60;91.70
2913;DHT22;1466;48.778;9.166;2023-03-14T13:16:21;12.70;91.50
2913;DHT22;1466;48.778;9.166;2023-03-14T13:18:49;12.70;90.50
2913;DHT22;1466;48.778;9.166;2023-03-14T13:21:22;12.90;90.20
2913;DHT22;1466;48.778;9.166;2023-03-14T13:24:04;12.80;88.50
2913;DHT22;1466;48.778;9.166;2023-03-14T13:26:39;12.90;88.50
2913;DHT22;1466;48.778;9.166;2023-03-14T13:29:19;12.90;88.10
2913;DHT22;1466;48.778;9.166;2023-03-14T13:31:51;12.80;88.10
2913;DHT22;1466;48.778;9.166;2023-03-14T13:34:17;12.80;88.70
2913;DHT22;1466;48.778;9.166;2023-03-14T13:36:43;13.00;89.10
2913;DHT22;1466;48.778;9.166;2023-03-14T13:39:20;13.00;86.20
2913;DHT22;1466;48.778;9.166;2023-03-14T13:41:57;12.90;84.90
2913;DHT22;1466;48.778;9.166;2023-03-14T13:44:31;12.70;84.80
2913;DHT22;1466;48.778;9.166;2023-03-14T13:46:59;12.70;85.00
2913;DHT22;1466;48.778;9.166;2023-03-14T13:49:25;12.70;84.60
2913;DHT22;1466;48.778;9.166;2023-03-14T13:51:52;12.80;84.20
2913;DHT22;1466;48.778;9.166;2023-03-14T13:54:22;12.60;82.50
2913;DHT22;1466;48.778;9.166;2023-03-14T13:56:49;12.50;83.00
2913;DHT22;1466;48.778;9.166;2023-03-14T13:59:25;12.40;82.20
2913;DHT22;1466;48.778;9.166;2023-03-14T14:01:53;12.30;81.30
2913;DHT22;1466;48.778;9.166;2023-03-14T14:04:21;12.10;79.90
2913;DHT22;1466;48.778;9.166;2023-03-14T14:06:53;12.00;80.20
2913;DHT22;1466;48.778;9.166;2023-03-14T14:09:20;12.00;81.20
2913;DHT22;1466;48.778;9.166;2023-03-14T14:11:55;12.00;80.50
2913;DHT22;1466;48.778;9.166;2023-03-14T14:16:51;12.10;79.00
2913;DHT22;1466;48.778;9.166;2023-03-14T14:19:17;12.10;78.40
2913;DHT22;1466;48.778;9.166;2023-03-14T14:21:44;11.70;75.40
2913;DHT22;1466;48.778;9.166;2023-03-14T14:24:17;11.70;75.60
2913;DHT22;1466;48.778;9.166;2023-03-14T14:27:00;11.70;76.50
2913;DHT22;1466;48.778;9.166;2023-03-14T14:29:33;11.90;76.10
2913;DHT22;1466;48.778;9.166;2023-03-14T14:32:19;11.80;75.10
2913;DHT22;1466;48.778;9.166;2023-03-14T14:35:06;12.00;76.80
2913;DHT22;1466;48.778;9.166;2023-03-14T14:37:34;12.10;75.80
2913;DHT22;1466;48.778;9.166;2023-03-14T14:40:08;12.10;75.80
2913;DHT22;1466;48.778;9.166;2023-03-14T14:42:35;12.20;75.60
2913;DHT22;1466;48.778;9.166;2023-03-14T14:45:06;12.10;75.30
2913;DHT22;1466;48.778;9.166;2023-03-14T14:47:32;12.10;76.00
2913;DHT22;1466;48.778;9.166;2023-03-14T14:50:04;11.90;74.90
2913;DHT22;1466;48.778;9.166;2023-03-14T14:52:43;11.60;74.50
2913;DHT22;1466;48.778;9.166;2023-03-14T14:55:19;11.50;75.30
2913;DHT22;1466;48.778;9.166;2023-03-14T14:57:51;11.60;76.20
2913;DHT22;1466;48.778;9.166;2023-03-14T15:00:23;11.50;76.00
2913;DHT22;1466;48.778;9.166;2023-03-14T15:02:50;11.50;76.00
2913;DHT22;1466;48.778;9.166;2023-03-14T15:05:22;11.60;76.50
2913;DHT22;1466;48.778;9.166;2023-03-14T15:07:49;11.70;76.70
2913;DHT22;1466;48.778;9.166;2023-03-14T15:10:18;11.50;76.00
2913;DHT22;1466;48.778;9.166;2023-03-14T15:12:44;11.50;76.20
2913;DHT22;1466;48.778;9.166;2023-03-14T15:15:10;11.70;77.20
2913;DHT22;1466;48.778;9.166;2023-03-14T15:17:37;11.80;76.80
2913;DHT22;1466;48.778;9.166;2023-03-14T15:20:04;11.90;76.80
2913;DHT22;1466;48.778;9.166;2023-03-14T15:22:31;12.10;76.50
2913;DHT22;1466;48.778;9.166;2023-03-14T15:24:56;12.20;75.30
2913;DHT22;1466;48.778;9.166;2023-03-14T15:27:22;12.40;75.70
2913;DHT22;1466;48.778;9.166;2023-03-14T15:29:48;12.40;75.00
2913;DHT22;1466;48.778;9.166;2023-03-14T15:32:16;12.10;74.70
2913;DHT22;1466;48.778;9.166;2023-03-14T15:34:42;11.90;75.50
2913;DHT22;1466;48.778;9.166;2023-03-14T15:37:12;11.90;76.20
2913;DHT22;1466;48.778;9.166;2023-03-14T15:39:39;11.80;75.70
2913;DHT22;1466;48.778;9.166;2023-03-14T15:42:05;11.50;76.30
2913;DHT22;1466;48.778;9.166;2023-03-14T15:44:31;11.50;76.80
2913;DHT22;1466;48.778;9.166;2023-03-14T15:46:56;11.40;77.30
2913;DHT22;1466;48.778;9.166;2023-03-14T15:49:22;11.40;77.60
2913;DHT22;1466;48.778;9.166;2023-03-14T15:51:47;11.40;77.70
2913;DHT22;1466;48.778;9.166;2023-03-14T15:54:14;11.40;78.10
2913;DHT22;1466;48.778;9.166;2023-03-14T15:56:39;11.60;78.20
2913;DHT22;1466;48.778;9.166;2023-03-14T15:59:05;11.80;78.40
2913;DHT22;1466;48.778;9.166;2023-03-14T16:01:31;11.70;77.00
2913;DHT22;1466;48.778;9.166;2023-03-14T16:03:56;11.70;77.10
2913;DHT22;1466;48.778;9.166;2023-03-14T16:06:22;11.60;77.40
2913;DHT22;1466;48.778;9.166;2023-03-14T16:08:48;11.50;77.60
2913;DHT22;1466;48.778;9.166;2023-03-14T16:11:14;11.40;78.20
2913;DHT22;1466;48.778;9.166;2023-03-14T16:13:40;11.40;78.70
2913;DHT22;1466;48.778;9.166;2023-03-14T16:16:07;11.30;78.90
2913;DHT22;1466;48.778;9.166;2023-03-14T16:18:35;11.30;79.10
2913;DHT22;1466;48.778;9.166;2023-03-14T16:21:21;11.40;79.40
2913;DHT22;1466;48.778;9.166;2023-03-14T16:23:47;11.50;79.40
2913;DHT22;1466;48.778;9.166;2023-03-14T16:26:15;11.40;79.20
2913;DHT22;1466;48.778;9.166;2023-03-14T16:28:42;11.30;79.70
2913;DHT22;1466;48.778;9.166;2023-03-14T16:31:13;11.30;80.20
2913;DHT22;1466;48.778;9.166;2023-03-14T16:33:40;11.30;80.30
2913;DHT22;1466;48.778;9.166;2023-03-14T16:36:07;11.20;80.60
2913;DHT22;1466;48.778;9.166;2023-03-14T16:38:41;11.30;80.70
2913;DHT22;1466;48.778;9.166;2023-03-14T16:41:16;11.20;80.80
2913;DHT22;1466;48.778;9.166;2023-03-14T16:43:42;11.20;81.20
2913;DHT22;1466;48.778;9.166;2023-03-14T16:46:13;11.30;81.40
2913;DHT22;1466;48.778;9.166;2023-03-14T16:48:39;11.20;81.40
2913;DHT22;1466;48.778;9.166;2023-03-14T16:51:05;11.30;81.40
2913;DHT22;1466;48.778;9.166;2023-03-14T16:53:30;11.30;81.50
2913;DHT22;1466;48.778;9.166;2023-03-14T16:55:58;11.40;81.60
2913;DHT22;1466;48.778;9.166;2023-03-14T16:58:24;11.40;81.60
2913;DHT22;1466;48.778;9.166;2023-03-14T17:00:49;11.40;81.80
2913;DHT22;1466;48.778;9.166;2023-03-14T17:03:16;11.40;81.80
2913;DHT22;1466;48.778;9.166;2023-03-14T17:05:46;11.40;81.70
2913;DHT22;1466;48.778;9.166;2023-03-14T17:08:13;11.40;81.90
2913;DHT22;1466;48.778;9.166;2023-03-14T17:10:38;11.40;82.10
2913;DHT22;1466;48.778;9.166;2023-03-14T17:13:04;11.50;82.30
2913;DHT22;1466;48.778;9.166;2023-03-14T17:15:29;11.50;82.30
2913;DHT22;1466;48.778;9.166;2023-03-14T17:17:55;11.50;82.10